createdAt,value
2022-12-23T00:01:18.493Z,78.92
2022-12-23T00:07:20.470Z,77.39
2022-12-23T00:13:43.377Z,78.38
2022-12-23T00:19:45.933Z,78.25
2022-12-23T00:25:48.402Z,78.88
2022-12-23T00:31:50.358Z,78.65
2022-12-23T00:37:52.310Z,77.39
2022-12-23T00:43:54.791Z,78.71
2022-12-23T00:49:57.257Z,78.23
2022-12-23T00:55:59.719Z,78.02
2022-12-23T01:02:20.405Z,77.58
2022-12-23T01:08:22.711Z,79.03
2022-12-23T01:14:26.210Z,83.22
2022-12-23T01:20:27.930Z,82.22
2022-12-23T01:26:33.149Z,80.35
2022-12-23T01:32:37.608Z,80.17
2022-12-23T01:38:40.078Z,80.18
2022-12-23T01:45:04.628Z,78.29
2022-12-23T01:51:26.831Z,77.80
2022-12-23T01:57:30.041Z,79.10
2022-12-23T02:03:46.127Z,78.60
2022-12-23T02:09:48.579Z,79.33
2022-12-23T02:16:19.212Z,77.85
2022-12-23T02:22:44.715Z,80.90
2022-12-23T02:29:20.353Z,77.68
2022-12-23T02:35:30.797Z,77.88
2022-12-23T02:41:32.513Z,83.14
2022-12-23T02:48:03.479Z,79.17
2022-12-23T02:54:11.289Z,79.14
2022-12-23T03:00:18.783Z,77.85
2022-12-23T03:06:31.273Z,78.03
2022-12-23T03:13:01.844Z,77.85
2022-12-23T03:19:42.457Z,77.92
2022-12-23T03:26:03.990Z,78.68
2022-12-23T03:32:08.479Z,78.89
2022-12-23T03:38:14.969Z,82.19
2022-12-23T03:44:22.452Z,78.53
2022-12-23T03:50:26.929Z,77.90
2022-12-23T03:56:39.457Z,77.40
2022-12-23T04:03:00.145Z,78.88
2022-12-23T04:09:03.467Z,78.53
2022-12-23T04:15:12.855Z,77.03
2022-12-23T04:21:15.212Z,76.95
2022-12-23T04:27:31.948Z,76.94
2022-12-23T04:33:34.398Z,83.51
2022-12-23T04:39:37.861Z,84.00
2022-12-23T04:45:40.345Z,79.18
2022-12-23T04:51:42.770Z,77.90
2022-12-23T04:57:47.400Z,77.34
2022-12-23T05:03:49.729Z,77.96
2022-12-23T05:09:52.155Z,80.25
2022-12-23T05:15:58.103Z,78.94
2022-12-23T05:22:01.058Z,79.29
2022-12-23T05:28:03.464Z,78.24
2022-12-23T05:34:08.437Z,77.97
2022-12-23T05:40:10.581Z,78.52
2022-12-23T05:46:13.040Z,77.88
2022-12-23T05:52:16.419Z,81.76
2022-12-23T05:58:18.899Z,83.10
2022-12-23T06:04:21.419Z,79.19
2022-12-23T06:10:23.807Z,78.30
2022-12-23T06:16:28.966Z,79.50
2022-12-23T06:22:31.736Z,82.98
2022-12-23T06:28:34.207Z,82.76
2022-12-23T06:34:36.734Z,81.69
2022-12-23T06:40:39.149Z,80.01
2022-12-23T06:46:43.595Z,79.11
2022-12-23T06:52:48.264Z,78.99
2022-12-23T06:58:50.550Z,80.30
2022-12-23T07:04:53.017Z,85.37
2022-12-23T07:11:02.504Z,82.08
2022-12-23T07:17:04.988Z,80.71
2022-12-23T07:23:07.413Z,82.09
2022-12-23T07:29:09.902Z,81.72
2022-12-23T07:35:12.391Z,82.88
2022-12-23T07:41:14.772Z,82.05
2022-12-23T07:47:17.228Z,82.00
2022-12-23T07:53:18.974Z,82.49
2022-12-23T07:59:21.162Z,82.56
2022-12-23T08:05:23.764Z,82.29
2022-12-23T08:11:26.195Z,82.14
2022-12-23T08:17:31.555Z,81.64
2022-12-23T08:23:34.029Z,81.44
2022-12-23T08:29:42.282Z,81.77
2022-12-23T08:35:44.033Z,80.55
2022-12-23T08:41:49.392Z,81.79
2022-12-23T08:47:51.199Z,81.44
2022-12-23T08:54:00.600Z,79.74
2022-12-23T09:00:03.876Z,79.77
2022-12-23T09:06:15.383Z,79.79
2022-12-23T09:12:17.826Z,78.50
2022-12-23T09:18:20.283Z,78.69
2022-12-23T09:24:22.536Z,79.05
2022-12-23T09:30:25.207Z,78.88
2022-12-23T09:36:27.668Z,78.34
2022-12-23T09:42:51.217Z,78.95
2022-12-23T09:49:09.755Z,78.40
2022-12-23T09:55:14.266Z,77.46
2022-12-23T10:01:41.486Z,76.80
2022-12-23T10:07:52.498Z,76.87
2022-12-23T10:14:03.421Z,76.17
2022-12-23T10:20:16.314Z,75.78
2022-12-23T10:26:26.837Z,75.86
2022-12-23T10:32:38.383Z,75.80
2022-12-23T10:38:59.831Z,76.76
2022-12-23T10:45:15.350Z,75.69
2022-12-23T10:51:35.969Z,73.97
2022-12-23T10:57:41.385Z,73.06
2022-12-23T11:04:00.284Z,73.58
2022-12-23T11:10:24.074Z,72.89
2022-12-23T11:16:30.517Z,73.19
2022-12-23T11:22:35.436Z,72.84
2022-12-23T11:28:53.932Z,72.85
2022-12-23T11:34:56.537Z,72.71
2022-12-23T11:41:02.883Z,72.54
2022-12-23T11:47:23.435Z,72.02
2022-12-23T11:53:26.976Z,71.74
2022-12-23T11:59:34.395Z,71.26
2022-12-23T12:05:42.349Z,70.94
2022-12-23T12:12:01.138Z,71.47
2022-12-23T12:18:12.837Z,71.91
2022-12-23T12:24:31.004Z,70.78
2022-12-23T12:30:45.965Z,71.25
2022-12-23T12:37:03.405Z,70.91
2022-12-23T12:43:27.023Z,69.92
2022-12-23T12:49:46.556Z,70.57
2022-12-23T12:56:17.116Z,70.52
2022-12-23T13:02:46.974Z,71.65
2022-12-23T13:09:06.245Z,70.06
2022-12-23T13:15:25.136Z,69.98
2022-12-23T13:21:45.290Z,69.79
2022-12-23T13:27:59.796Z,70.12
2022-12-23T13:34:30.977Z,71.61
2022-12-23T13:40:41.455Z,70.12
2022-12-23T13:46:58.379Z,70.26
2022-12-23T13:53:21.967Z,70.35
2022-12-23T13:59:39.439Z,70.25
2022-12-23T14:05:47.924Z,70.55
2022-12-23T14:11:56.243Z,71.18
2022-12-23T14:18:25.059Z,71.02
2022-12-23T14:24:58.562Z,70.48
2022-12-23T14:31:04.214Z,74.66
2022-12-23T14:37:21.649Z,72.44
2022-12-23T14:43:24.080Z,77.24
2022-12-23T14:49:43.123Z,72.60
2022-12-23T14:55:47.057Z,74.01
2022-12-23T15:01:53.581Z,73.42
2022-12-23T15:07:58.029Z,71.99
2022-12-23T15:14:05.465Z,78.86
2022-12-23T15:20:10.985Z,77.88
2022-12-23T15:26:13.396Z,79.71
2022-12-23T15:32:16.885Z,74.93
2022-12-23T15:38:22.302Z,73.19
2022-12-23T15:44:27.754Z,73.04
2022-12-23T15:50:31.230Z,79.42
2022-12-23T15:56:41.446Z,73.58
2022-12-23T16:03:02.793Z,82.85
2022-12-23T16:09:14.767Z,75.52
2022-12-23T16:15:24.257Z,75.96
2022-12-23T16:21:32.487Z,73.86
2022-12-23T16:27:44.199Z,73.41
2022-12-23T16:33:52.685Z,73.60
2022-12-23T16:39:58.266Z,74.55
2022-12-23T16:46:06.762Z,77.30
2022-12-23T16:52:18.118Z,76.36
2022-12-23T16:58:20.562Z,75.39
2022-12-23T17:04:24.173Z,75.65
2022-12-23T17:10:26.871Z,74.46
2022-12-23T17:16:29.020Z,74.29
2022-12-23T17:22:34.418Z,74.17
2022-12-23T17:28:36.855Z,73.94
2022-12-23T17:34:39.325Z,78.53
2022-12-23T17:40:42.810Z,74.79
2022-12-23T17:46:47.229Z,79.66
2022-12-23T17:52:49.690Z,83.59
2022-12-23T17:58:52.183Z,78.46
2022-12-23T18:04:54.609Z,76.59
2022-12-23T18:10:59.068Z,76.90
2022-12-23T18:17:01.631Z,76.89
2022-12-23T18:23:04.057Z,76.40
2022-12-23T18:29:07.452Z,81.64
2022-12-23T18:35:26.988Z,80.06
2022-12-23T18:41:29.438Z,77.89
2022-12-23T18:47:31.888Z,76.47
2022-12-23T18:53:34.369Z,76.21
2022-12-23T18:59:38.814Z,81.38
2022-12-23T19:05:41.313Z,84.68
2022-12-23T19:11:43.617Z,81.77
2022-12-23T19:17:46.218Z,78.13
2022-12-23T19:23:48.665Z,77.91
2022-12-23T19:29:52.903Z,77.67
2022-12-23T19:35:55.730Z,77.20
2022-12-23T19:41:58.106Z,76.48
2022-12-23T19:48:00.595Z,80.00
2022-12-23T19:54:05.589Z,80.34
2022-12-23T20:00:08.391Z,78.65
2022-12-23T20:06:29.035Z,82.05
2022-12-23T20:12:39.448Z,78.22
2022-12-23T20:18:42.030Z,78.34
2022-12-23T20:24:44.449Z,80.00
2022-12-23T20:30:49.999Z,81.33
2022-12-23T20:36:52.925Z,80.42
2022-12-23T20:42:54.918Z,83.88
2022-12-23T20:48:57.373Z,80.95
2022-12-23T20:55:01.933Z,80.29
2022-12-23T21:01:12.406Z,83.37
2022-12-23T21:07:14.805Z,85.15
2022-12-23T21:13:17.245Z,80.24
2022-12-23T21:19:24.738Z,81.36
2022-12-23T21:25:27.171Z,80.32
2022-12-23T21:31:31.752Z,80.15
2022-12-23T21:37:37.120Z,83.43
2022-12-23T21:43:39.618Z,81.97
2022-12-23T21:49:43.055Z,80.64
2022-12-23T21:55:45.508Z,80.14
2022-12-23T22:01:48.000Z,87.08
2022-12-23T22:07:50.412Z,86.26
2022-12-23T22:13:52.784Z,81.41
2022-12-23T22:19:55.365Z,81.76
2022-12-23T22:25:57.829Z,82.87
2022-12-23T22:32:00.327Z,81.10
2022-12-23T22:38:02.258Z,81.69
2022-12-23T22:44:07.186Z,84.83
2022-12-23T22:50:09.306Z,86.07
2022-12-23T22:56:14.122Z,82.72
2022-12-23T23:02:16.639Z,82.15
2022-12-23T23:08:19.075Z,86.82
2022-12-23T23:14:21.553Z,83.67
2022-12-23T23:20:23.986Z,83.12
2022-12-23T23:26:28.552Z,82.18
2022-12-23T23:32:31.075Z,84.82
2022-12-23T23:38:33.432Z,83.22
2022-12-23T23:44:36.969Z,81.80
2022-12-23T23:50:40.396Z,80.57
2022-12-23T23:56:42.864Z,81.84
